createdAt,value
2023-01-19T00:00:08.838Z,31.58
2023-01-19T00:02:35.360Z,34.90
2023-01-19T00:05:03.952Z,32.55
2023-01-19T00:07:31.673Z,32.47
2023-01-19T00:09:58.377Z,36.95
2023-01-19T00:12:25.551Z,33.75
2023-01-19T00:14:55.985Z,28.63
2023-01-19T00:17:22.632Z,26.77
2023-01-19T00:19:49.078Z,25.45
2023-01-19T00:22:15.651Z,27.15
2023-01-19T00:24:42.224Z,27.75
2023-01-19T00:27:08.715Z,28.17
2023-01-19T00:29:35.383Z,31.17
2023-01-19T00:32:05.758Z,30.02
2023-01-19T00:34:39.490Z,30.85
2023-01-19T00:37:07.064Z,28.95
2023-01-19T00:39:33.867Z,31.95
2023-01-19T00:42:20.177Z,32.72
2023-01-19T00:44:46.943Z,30.77
2023-01-19T00:47:13.508Z,36.22
2023-01-19T00:49:39.948Z,31.50
2023-01-19T00:52:06.527Z,28.52
2023-01-19T00:54:33.133Z,31.42
2023-01-19T00:56:59.620Z,35.38
2023-01-19T00:59:26.052Z,29.52
2023-01-19T01:01:55.835Z,37.67
2023-01-19T01:04:22.425Z,29.05
2023-01-19T01:06:49.175Z,28.40
2023-01-19T01:09:15.623Z,26.30
2023-01-19T01:11:43.258Z,30.23
2023-01-19T01:14:11.120Z,39.58
2023-01-19T01:16:37.855Z,27.77
2023-01-19T01:19:04.854Z,24.75
2023-01-19T01:21:31.427Z,24.75
2023-01-19T01:23:58.121Z,24.33
2023-01-19T01:26:26.973Z,27.08
2023-01-19T01:28:53.546Z,22.90
2023-01-19T01:31:20.114Z,27.60
2023-01-19T01:33:46.679Z,23.58
2023-01-19T01:36:13.265Z,20.42
2023-01-19T01:38:41.089Z,30.85
2023-01-19T01:41:08.609Z,23.77
2023-01-19T01:43:47.616Z,19.58
2023-01-19T01:46:16.237Z,21.05
2023-01-19T01:48:48.657Z,30.13
2023-01-19T01:51:25.952Z,31.25
2023-01-19T01:54:00.269Z,31.80
2023-01-19T01:56:38.148Z,25.63
2023-01-19T01:59:18.184Z,43.90
2023-01-19T02:02:03.177Z,29.92
2023-01-19T02:04:31.703Z,29.85
2023-01-19T02:07:16.790Z,22.55
2023-01-19T02:12:47.216Z,23.83
2023-01-19T02:15:19.907Z,24.55
2023-01-19T02:17:46.805Z,21.90
2023-01-19T02:20:13.748Z,26.33
2023-01-19T02:22:51.205Z,26.50
2023-01-19T02:25:19.518Z,26.77
2023-01-19T02:27:46.323Z,27.92
2023-01-19T02:30:13.496Z,24.35
2023-01-19T02:32:40.047Z,25.73
2023-01-19T02:35:07.010Z,19.83
2023-01-19T02:37:40.029Z,26.20
2023-01-19T02:40:13.089Z,23.45
2023-01-19T02:42:44.470Z,29.63
2023-01-19T02:45:14.445Z,23.67
2023-01-19T02:47:44.395Z,19.17
2023-01-19T02:50:35.572Z,25.67
2023-01-19T02:53:30.014Z,21.83
2023-01-19T02:56:39.587Z,23.90
2023-01-19T02:59:24.386Z,26.75
2023-01-19T03:02:10.463Z,19.58
2023-01-19T03:04:36.997Z,20.60
2023-01-19T03:07:12.217Z,21.00
2023-01-19T03:09:57.954Z,28.35
2023-01-19T03:12:35.589Z,25.08
2023-01-19T03:15:11.348Z,23.45
2023-01-19T03:17:38.718Z,19.83
2023-01-19T03:20:07.113Z,23.75
2023-01-19T03:22:34.484Z,23.88
2023-01-19T03:25:01.865Z,23.73
2023-01-19T03:27:41.154Z,21.05
2023-01-19T03:30:19.220Z,21.15
2023-01-19T03:32:53.125Z,22.15
2023-01-19T03:35:24.529Z,33.20
2023-01-19T03:37:54.783Z,22.42
2023-01-19T03:40:22.199Z,22.35
2023-01-19T03:42:52.628Z,21.23
2023-01-19T03:45:19.629Z,17.45
2023-01-19T03:47:46.168Z,19.40
2023-01-19T03:50:21.138Z,22.23
2023-01-19T03:53:01.379Z,23.70
2023-01-19T03:55:28.107Z,24.42
2023-01-19T03:57:54.615Z,20.60
2023-01-19T04:00:21.178Z,29.45
2023-01-19T04:02:47.853Z,21.23
2023-01-19T04:05:14.465Z,29.20
2023-01-19T04:07:41.130Z,27.45
2023-01-19T04:10:12.514Z,29.50
2023-01-19T04:12:40.269Z,30.60
2023-01-19T04:15:07.313Z,38.38
2023-01-19T04:17:33.919Z,32.22
2023-01-19T04:20:00.444Z,35.97
2023-01-19T04:22:32.589Z,30.50
2023-01-19T04:24:59.203Z,37.00
2023-01-19T04:27:26.105Z,30.63
2023-01-19T04:29:52.815Z,39.38
2023-01-19T04:32:21.537Z,33.55
2023-01-19T04:34:48.133Z,39.10
2023-01-19T04:37:14.637Z,40.17
2023-01-19T04:39:41.089Z,36.08
2023-01-19T04:42:07.599Z,35.70
2023-01-19T04:44:34.065Z,37.63
2023-01-19T04:47:01.600Z,34.90
2023-01-19T04:49:28.033Z,38.42
2023-01-19T04:51:54.702Z,37.70
2023-01-19T04:54:21.385Z,36.75
2023-01-19T04:56:48.117Z,35.70
2023-01-19T04:59:14.972Z,33.33
2023-01-19T05:01:41.680Z,34.97
2023-01-19T05:04:08.922Z,31.25
2023-01-19T05:06:35.564Z,32.83
2023-01-19T05:09:03.491Z,34.40
2023-01-19T05:11:30.202Z,41.90
2023-01-19T05:13:57.090Z,34.97
2023-01-19T05:16:23.898Z,28.02
2023-01-19T05:18:50.430Z,30.58
2023-01-19T05:21:17.011Z,36.30
2023-01-19T05:23:43.459Z,34.53
2023-01-19T05:26:10.467Z,30.05
2023-01-19T05:28:37.246Z,33.33
2023-01-19T05:31:03.996Z,36.35
2023-01-19T05:33:31.116Z,27.92
2023-01-19T05:35:57.663Z,36.67
2023-01-19T05:38:34.607Z,35.90
2023-01-19T05:41:01.606Z,29.63
2023-01-19T05:43:28.145Z,25.67
2023-01-19T05:45:54.578Z,23.42
2023-01-19T05:48:21.154Z,25.92
2023-01-19T05:50:51.697Z,27.20
2023-01-19T05:53:18.544Z,28.15
2023-01-19T05:55:45.173Z,27.98
2023-01-19T05:58:11.698Z,31.88
2023-01-19T06:00:38.227Z,27.00
2023-01-19T06:03:06.535Z,33.85
2023-01-19T06:05:34.032Z,30.67
2023-01-19T06:08:00.542Z,32.40
2023-01-19T06:10:27.045Z,36.63
2023-01-19T06:12:53.640Z,42.22
2023-01-19T06:15:20.342Z,41.33
2023-01-19T06:17:46.812Z,37.72
2023-01-19T06:20:16.447Z,36.42
2023-01-19T06:22:42.908Z,34.20
2023-01-19T06:25:12.133Z,37.47
2023-01-19T06:27:44.991Z,34.17
2023-01-19T06:30:13.011Z,29.75
2023-01-19T06:32:39.517Z,29.92
2023-01-19T06:35:07.858Z,34.22
2023-01-19T06:37:34.874Z,27.27
2023-01-19T06:40:04.737Z,30.05
2023-01-19T06:42:31.588Z,34.33
2023-01-19T06:44:58.292Z,36.80
2023-01-19T06:47:30.523Z,34.20
2023-01-19T06:49:57.450Z,30.98
2023-01-19T06:52:23.904Z,26.33
2023-01-19T06:54:50.472Z,34.42
2023-01-19T06:57:17.462Z,28.13
2023-01-19T06:59:44.004Z,32.42
2023-01-19T07:02:26.501Z,28.73
2023-01-19T07:04:55.560Z,26.92
2023-01-19T07:07:22.079Z,32.60
2023-01-19T07:09:48.595Z,26.02
2023-01-19T07:12:15.342Z,28.25
2023-01-19T07:14:42.238Z,28.20
2023-01-19T07:17:24.067Z,29.13
2023-01-19T07:19:50.505Z,30.77
2023-01-19T07:22:17.092Z,29.08
2023-01-19T07:24:43.908Z,24.60
2023-01-19T07:27:11.797Z,24.63
2023-01-19T07:29:43.164Z,27.00
2023-01-19T07:32:09.706Z,29.27
2023-01-19T07:34:36.517Z,29.00
2023-01-19T07:37:06.566Z,27.52
2023-01-19T07:39:33.078Z,26.58
2023-01-19T07:41:59.825Z,29.50
2023-01-19T07:44:26.283Z,30.35
2023-01-19T07:46:55.667Z,27.20
2023-01-19T07:49:22.118Z,32.28
2023-01-19T07:51:48.868Z,28.70
2023-01-19T07:54:15.474Z,27.85
2023-01-19T07:56:42.010Z,25.73
2023-01-19T07:59:10.357Z,26.80
2023-01-19T08:01:40.026Z,28.67
2023-01-19T08:04:10.370Z,30.17
2023-01-19T08:06:39.084Z,29.20
2023-01-19T08:09:07.087Z,24.00
2023-01-19T08:11:33.765Z,29.25
2023-01-19T08:14:08.366Z,27.77
2023-01-19T08:16:35.679Z,25.00
2023-01-19T08:19:02.390Z,26.33
2023-01-19T08:21:36.361Z,25.65
2023-01-19T08:24:02.982Z,29.23
2023-01-19T08:26:35.758Z,28.40
2023-01-19T08:29:05.317Z,25.75
2023-01-19T08:31:31.893Z,28.80
2023-01-19T08:33:59.061Z,27.48
2023-01-19T08:36:27.004Z,22.10
2023-01-19T08:38:53.690Z,22.75
2023-01-19T08:41:20.713Z,23.35
2023-01-19T08:43:47.723Z,27.58
2023-01-19T08:46:21.002Z,24.33
2023-01-19T08:48:50.535Z,23.90
2023-01-19T08:51:17.628Z,20.70
2023-01-19T08:53:44.363Z,24.13
2023-01-19T08:56:12.611Z,20.95
2023-01-19T08:58:40.795Z,20.70
2023-01-19T09:01:09.048Z,27.52
2023-01-19T09:03:36.459Z,23.95
2023-01-19T09:06:09.229Z,28.45
2023-01-19T09:08:35.719Z,24.27
2023-01-19T09:11:03.012Z,21.15
2023-01-19T09:13:29.479Z,22.15
2023-01-19T09:15:56.097Z,24.25
2023-01-19T09:18:23.877Z,20.60
2023-01-19T09:20:51.072Z,22.48
2023-01-19T09:23:19.660Z,23.17
2023-01-19T09:25:47.156Z,20.27
2023-01-19T09:28:16.139Z,21.92
2023-01-19T09:30:43.331Z,25.10
2023-01-19T09:33:13.575Z,21.10
2023-01-19T09:35:41.555Z,24.25
2023-01-19T09:38:09.244Z,16.60
2023-01-19T09:40:42.166Z,20.38
2023-01-19T09:43:16.051Z,19.05
2023-01-19T09:45:51.900Z,19.85
2023-01-19T09:48:48.511Z,19.60
2023-01-19T09:51:25.414Z,21.20
2023-01-19T09:54:21.899Z,19.08
2023-01-19T09:56:52.507Z,21.00
2023-01-19T09:59:25.475Z,19.20
2023-01-19T10:02:19.318Z,19.60
2023-01-19T10:04:52.970Z,17.95
2023-01-19T10:07:36.384Z,21.90
2023-01-19T10:10:20.037Z,23.77
2023-01-19T10:13:08.429Z,15.90
2023-01-19T10:15:52.577Z,17.02
2023-01-19T10:18:26.550Z,17.15
2023-01-19T10:21:01.340Z,19.30
2023-01-19T10:23:46.192Z,14.68
2023-01-19T10:26:25.310Z,18.08
2023-01-19T10:28:57.465Z,13.57
2023-01-19T10:33:52.267Z,14.52
2023-01-19T10:36:21.825Z,14.07
2023-01-19T10:38:48.469Z,15.15
2023-01-19T10:41:19.790Z,17.00
2023-01-19T10:43:47.812Z,20.23
2023-01-19T10:46:24.958Z,17.45
2023-01-19T10:48:53.988Z,17.30
2023-01-19T10:51:21.701Z,14.90
2023-01-19T10:53:57.884Z,16.23
2023-01-19T10:56:29.744Z,15.85
2023-01-19T10:58:56.376Z,14.90
2023-01-19T11:01:26.238Z,19.10
2023-01-19T11:03:54.456Z,12.82
2023-01-19T11:06:29.128Z,18.10
2023-01-19T11:09:20.090Z,15.88
2023-01-19T11:14:19.003Z,14.68
2023-01-19T11:16:48.891Z,14.50
2023-01-19T11:19:30.165Z,13.48
2023-01-19T11:22:21.759Z,16.10
2023-01-19T11:24:49.401Z,14.18
2023-01-19T11:27:22.378Z,16.30
2023-01-19T11:29:53.872Z,13.20
2023-01-19T11:32:23.177Z,15.10
2023-01-19T11:34:49.857Z,15.45
2023-01-19T11:37:16.294Z,13.27
2023-01-19T11:39:48.702Z,13.52
2023-01-19T11:42:16.079Z,16.13
2023-01-19T11:45:07.377Z,16.08
2023-01-19T11:47:42.785Z,14.15
2023-01-19T11:50:22.552Z,13.85
2023-01-19T11:53:04.688Z,15.07
2023-01-19T11:55:43.637Z,13.95
2023-01-19T11:58:15.798Z,13.13
2023-01-19T12:01:01.633Z,14.10
2023-01-19T12:03:47.088Z,15.27
2023-01-19T12:06:25.606Z,11.82
2023-01-19T12:09:00.611Z,12.70
2023-01-19T12:11:32.278Z,13.02
2023-01-19T12:14:00.311Z,11.88
2023-01-19T12:16:29.872Z,12.23
2023-01-19T12:19:00.355Z,12.50
2023-01-19T12:21:30.565Z,13.68
2023-01-19T12:24:11.579Z,13.98
2023-01-19T12:26:49.307Z,12.48
2023-01-19T12:29:22.761Z,20.55
2023-01-19T12:32:14.687Z,12.98
2023-01-19T12:34:49.658Z,13.90
2023-01-19T12:37:32.019Z,11.65
2023-01-19T12:40:28.118Z,15.07
2023-01-19T12:43:00.586Z,11.35
2023-01-19T12:45:47.990Z,12.35
2023-01-19T12:48:27.553Z,12.13
2023-01-19T12:50:54.199Z,10.43
2023-01-19T12:53:22.484Z,10.50
2023-01-19T12:56:00.076Z,13.27
2023-01-19T12:58:27.151Z,11.55
2023-01-19T13:01:16.046Z,11.35
2023-01-19T13:03:45.970Z,11.70
2023-01-19T13:06:12.609Z,12.07
2023-01-19T13:09:00.171Z,11.27
2023-01-19T13:11:30.311Z,10.80
2023-01-19T13:13:59.175Z,10.30
2023-01-19T13:16:28.780Z,12.50
2023-01-19T13:19:10.185Z,12.52
2023-01-19T13:21:44.687Z,12.95
2023-01-19T13:24:17.684Z,12.73
2023-01-19T13:26:49.920Z,12.43
2023-01-19T13:29:33.725Z,12.57
2023-01-19T13:32:02.904Z,10.95
2023-01-19T13:34:54.692Z,10.60
2023-01-19T13:37:33.136Z,11.45
2023-01-19T13:40:00.178Z,10.85
2023-01-19T13:42:43.937Z,12.30
2023-01-19T13:45:30.666Z,10.60
2023-01-19T13:48:13.052Z,12.77
2023-01-19T13:50:39.718Z,15.25
2023-01-19T13:53:25.498Z,11.57
2023-01-19T13:56:18.474Z,12.18
2023-01-19T13:59:10.192Z,10.55
2023-01-19T14:01:38.757Z,11.93
2023-01-19T14:04:05.654Z,11.30
2023-01-19T14:06:37.714Z,13.63
2023-01-19T14:09:19.290Z,14.40
2023-01-19T14:12:10.924Z,14.70
2023-01-19T14:14:37.846Z,11.30
2023-01-19T14:17:05.023Z,11.85
2023-01-19T14:19:48.085Z,13.73
2023-01-19T14:22:14.587Z,12.50
2023-01-19T14:24:41.101Z,11.98
2023-01-19T14:27:22.888Z,12.02
2023-01-19T14:29:50.762Z,12.32
2023-01-19T14:32:25.184Z,14.52
2023-01-19T14:35:07.012Z,11.93
2023-01-19T14:37:47.219Z,13.48
2023-01-19T14:40:21.434Z,13.40
2023-01-19T14:42:52.690Z,20.05
2023-01-19T14:45:31.232Z,14.88
2023-01-19T14:48:05.148Z,14.45
2023-01-19T14:50:41.497Z,13.70
2023-01-19T14:53:16.168Z,12.57
2023-01-19T14:55:55.894Z,12.57
2023-01-19T14:58:25.043Z,12.82
2023-01-19T15:00:55.707Z,15.30
2023-01-19T15:03:28.872Z,15.43
2023-01-19T15:06:04.091Z,12.63
2023-01-19T15:08:33.507Z,16.80
2023-01-19T15:11:21.902Z,12.90
2023-01-19T15:13:51.766Z,17.30
2023-01-19T15:16:18.949Z,15.05
2023-01-19T15:18:45.524Z,15.75
2023-01-19T15:21:20.217Z,13.52
2023-01-19T15:23:47.555Z,14.93
2023-01-19T15:26:17.790Z,17.85
2023-01-19T15:28:45.439Z,17.25
2023-01-19T15:31:17.216Z,16.67
2023-01-19T15:36:22.424Z,15.48
2023-01-19T15:38:51.773Z,16.23
2023-01-19T15:41:32.153Z,16.77
2023-01-19T15:43:59.143Z,20.13
2023-01-19T15:46:26.288Z,17.85
2023-01-19T15:48:53.975Z,16.67
2023-01-19T15:51:22.860Z,17.50
2023-01-19T15:53:50.577Z,19.08
2023-01-19T15:56:28.856Z,18.52
2023-01-19T16:01:38.247Z,20.65
2023-01-19T16:04:06.794Z,17.83
2023-01-19T16:06:36.579Z,20.92
2023-01-19T16:09:04.399Z,17.73
2023-01-19T16:11:34.393Z,18.98
2023-01-19T16:14:09.304Z,20.05
2023-01-19T16:16:36.193Z,19.60
2023-01-19T16:19:02.964Z,17.30
2023-01-19T16:21:31.803Z,21.85
2023-01-19T16:23:58.271Z,24.95
2023-01-19T16:26:28.103Z,19.05
2023-01-19T16:29:00.133Z,19.35
2023-01-19T16:33:53.651Z,18.88
2023-01-19T16:36:27.361Z,18.58
2023-01-19T16:38:54.932Z,20.88
2023-01-19T16:41:21.485Z,22.08
2023-01-19T16:43:55.757Z,20.40
2023-01-19T16:46:25.706Z,18.00
2023-01-19T16:48:53.046Z,17.85
2023-01-19T16:51:22.253Z,18.35
2023-01-19T16:53:50.145Z,19.75
2023-01-19T16:56:16.941Z,18.85
2023-01-19T16:58:43.654Z,21.80
2023-01-19T17:01:17.762Z,21.33
2023-01-19T17:03:45.584Z,20.80
2023-01-19T17:06:14.607Z,18.65
2023-01-19T17:08:41.574Z,20.52
2023-01-19T17:11:13.252Z,18.15
2023-01-19T17:13:39.892Z,18.52
2023-01-19T17:16:09.501Z,17.85
2023-01-19T17:18:36.811Z,22.30
2023-01-19T17:21:06.797Z,21.45
2023-01-19T17:23:36.149Z,16.25
2023-01-19T17:26:04.479Z,18.02
2023-01-19T17:28:31.412Z,17.95
2023-01-19T17:31:04.845Z,16.80
2023-01-19T17:33:31.680Z,18.17
2023-01-19T17:36:06.705Z,21.35
2023-01-19T17:38:33.331Z,19.50
2023-01-19T17:41:00.217Z,17.05
2023-01-19T17:43:27.174Z,18.88
2023-01-19T17:45:55.915Z,18.00
2023-01-19T17:48:28.532Z,19.65
2023-01-19T17:50:55.883Z,20.50
2023-01-19T17:53:23.460Z,19.17
2023-01-19T17:55:50.303Z,27.27
2023-01-19T17:58:16.856Z,15.90
2023-01-19T18:00:43.421Z,18.45
2023-01-19T18:03:10.215Z,19.63
2023-01-19T18:05:39.141Z,19.00
2023-01-19T18:08:05.980Z,22.40
2023-01-19T18:10:33.016Z,19.42
2023-01-19T18:12:59.549Z,18.00
2023-01-19T18:15:29.796Z,20.10
2023-01-19T18:17:56.348Z,19.50
2023-01-19T18:20:25.776Z,18.50
2023-01-19T18:22:54.301Z,18.70
2023-01-19T18:25:20.999Z,17.30
2023-01-19T18:27:47.907Z,18.15
2023-01-19T18:30:14.977Z,19.35
2023-01-19T18:32:52.929Z,17.40
2023-01-19T18:35:19.537Z,17.40
2023-01-19T18:37:46.707Z,21.13
2023-01-19T18:40:27.699Z,15.98
2023-01-19T18:42:54.250Z,18.30
2023-01-19T18:45:20.774Z,16.50
2023-01-19T18:47:49.720Z,16.13
2023-01-19T18:50:18.211Z,16.02
2023-01-19T18:52:47.824Z,16.23
2023-01-19T18:55:14.386Z,19.40
2023-01-19T18:57:44.322Z,17.90
2023-01-19T19:00:15.005Z,17.88
2023-01-19T19:02:41.873Z,20.05
2023-01-19T19:05:11.193Z,18.23
2023-01-19T19:07:38.013Z,16.55
2023-01-19T19:10:05.607Z,17.08
2023-01-19T19:12:37.840Z,16.67
2023-01-19T19:15:04.743Z,18.08
2023-01-19T19:17:35.053Z,17.20
2023-01-19T19:20:06.905Z,16.75
2023-01-19T19:22:36.711Z,19.17
2023-01-19T19:25:14.762Z,17.45
2023-01-19T19:27:45.427Z,19.58
2023-01-19T19:30:16.322Z,15.60
2023-01-19T19:32:42.981Z,18.40
2023-01-19T19:35:19.980Z,16.83
2023-01-19T19:37:57.729Z,17.30
2023-01-19T19:40:29.943Z,18.08
2023-01-19T19:45:28.899Z,15.35
2023-01-19T19:47:55.620Z,18.73
2023-01-19T19:50:34.817Z,17.95
2023-01-19T19:56:03.850Z,16.67
2023-01-19T19:58:59.916Z,16.75
2023-01-19T20:01:33.985Z,16.77
2023-01-19T20:04:12.016Z,16.38
2023-01-19T20:06:44.875Z,16.98
2023-01-19T20:09:20.622Z,15.85
2023-01-19T20:11:49.348Z,19.13
2023-01-19T20:14:18.671Z,16.45
2023-01-19T20:16:52.740Z,17.00
2023-01-19T20:19:21.815Z,18.02
2023-01-19T20:21:53.414Z,15.18
2023-01-19T20:24:31.600Z,18.52
2023-01-19T20:26:58.552Z,18.90
2023-01-19T20:29:29.777Z,17.75
2023-01-19T20:31:57.712Z,20.15
2023-01-19T20:34:28.284Z,14.43
2023-01-19T20:36:55.164Z,18.65
2023-01-19T20:39:25.297Z,16.27
2023-01-19T20:41:55.704Z,18.77
2023-01-19T20:44:44.723Z,19.42
2023-01-19T20:47:24.456Z,19.60
2023-01-19T20:49:50.965Z,15.93
2023-01-19T20:52:17.547Z,17.13
2023-01-19T20:54:46.927Z,14.95
2023-01-19T20:57:19.388Z,17.50
2023-01-19T20:59:48.970Z,16.55
2023-01-19T21:02:18.335Z,16.73
2023-01-19T21:04:53.300Z,18.20
2023-01-19T21:07:20.301Z,15.98
2023-01-19T21:09:46.939Z,14.95
2023-01-19T21:12:19.148Z,18.30
2023-01-19T21:14:46.232Z,16.02
2023-01-19T21:17:15.188Z,16.48
2023-01-19T21:19:44.328Z,14.90
2023-01-19T21:22:11.033Z,16.30
2023-01-19T21:24:44.497Z,13.63
2023-01-19T21:27:25.729Z,18.42
2023-01-19T21:29:52.445Z,16.95
2023-01-19T21:32:30.602Z,15.90
2023-01-19T21:34:57.347Z,17.30
2023-01-19T21:37:26.576Z,17.17
2023-01-19T21:40:06.155Z,14.75
2023-01-19T21:42:34.851Z,17.45
2023-01-19T21:45:03.528Z,15.88
2023-01-19T21:47:30.272Z,17.92
2023-01-19T21:49:56.989Z,17.80
2023-01-19T21:52:23.874Z,20.23
2023-01-19T21:54:57.385Z,16.65
2023-01-19T21:57:24.054Z,18.50
2023-01-19T21:59:58.866Z,22.48
2023-01-19T22:02:39.005Z,16.98
2023-01-19T22:05:08.257Z,17.30
2023-01-19T22:07:34.908Z,18.27
2023-01-19T22:10:01.649Z,20.65
2023-01-19T22:12:29.648Z,23.50
2023-01-19T22:14:56.470Z,17.75
2023-01-19T22:17:23.060Z,20.13
2023-01-19T22:19:52.585Z,19.48
2023-01-19T22:22:19.315Z,17.60
2023-01-19T22:24:46.959Z,19.60
2023-01-19T22:27:13.831Z,17.73
2023-01-19T22:29:40.659Z,22.65
2023-01-19T22:32:07.427Z,18.98
2023-01-19T22:34:34.204Z,18.08
2023-01-19T22:37:06.249Z,18.65
2023-01-19T22:39:34.558Z,19.33
2023-01-19T22:42:01.122Z,18.48
2023-01-19T22:44:30.497Z,22.10
2023-01-19T22:46:57.193Z,21.42
2023-01-19T22:49:23.842Z,19.55
2023-01-19T22:51:52.720Z,18.90
2023-01-19T22:54:19.341Z,23.20
2023-01-19T22:56:46.062Z,23.58
2023-01-19T22:59:13.695Z,21.40
2023-01-19T23:01:45.845Z,18.27
2023-01-19T23:04:14.695Z,19.10
2023-01-19T23:06:42.112Z,20.08
2023-01-19T23:09:12.403Z,21.15
2023-01-19T23:11:41.047Z,23.00
2023-01-19T23:14:12.443Z,20.08
2023-01-19T23:16:38.955Z,23.65
2023-01-19T23:19:13.972Z,22.60
2023-01-19T23:21:41.149Z,21.25
2023-01-19T23:24:10.417Z,21.17
2023-01-19T23:26:40.531Z,23.85
2023-01-19T23:29:13.371Z,22.77
2023-01-19T23:31:44.104Z,27.55
2023-01-19T23:34:16.115Z,24.05
2023-01-19T23:39:27.360Z,21.25
2023-01-19T23:44:22.755Z,21.10
2023-01-19T23:46:49.420Z,21.55
2023-01-19T23:49:16.962Z,22.02
2023-01-19T23:51:43.568Z,19.60
2023-01-19T23:54:10.308Z,24.92
2023-01-19T23:56:37.932Z,21.17
2023-01-19T23:59:07.228Z,20.20
